createdAt,value
2018-04-16T00:03:00.544Z,14.99
2018-04-16T00:06:03.087Z,15.06
2018-04-16T00:09:05.721Z,15.12
2018-04-16T00:12:08.401Z,14.76
2018-04-16T00:15:11.263Z,14.89
2018-04-16T00:18:13.889Z,14.88
2018-04-16T00:21:16.470Z,14.95
2018-04-16T00:24:19.113Z,14.44
2018-04-16T00:27:21.641Z,14.52
2018-04-16T00:30:24.237Z,14.27
2018-04-16T00:33:32.178Z,14.32
2018-04-16T00:36:40.240Z,14.34
2018-04-16T00:39:48.371Z,14.48
2018-04-16T00:42:56.472Z,14.45
2018-04-16T00:46:04.448Z,14.53
2018-04-16T00:49:12.472Z,14.51
2018-04-16T00:52:20.646Z,14.27
2018-04-16T00:55:28.636Z,14.48
2018-04-16T00:58:36.857Z,14.34
2018-04-16T01:01:45.080Z,14.29
2018-04-16T01:04:53.111Z,14.27
2018-04-16T01:08:01.203Z,14.31
2018-04-16T01:11:09.423Z,14.37
2018-04-16T01:14:17.679Z,14.03
2018-04-16T01:17:25.944Z,14.42
2018-04-16T01:20:33.995Z,14.35
2018-04-16T01:23:42.051Z,14.33
2018-04-16T01:26:50.086Z,14.28
2018-04-16T01:29:58.117Z,14.39
2018-04-16T01:33:06.303Z,14.53
2018-04-16T01:36:14.405Z,14.23
2018-04-16T01:39:23.067Z,14.22
2018-04-16T01:46:14.886Z,14.12
2018-04-16T01:49:22.975Z,14.26
2018-04-16T01:52:31.184Z,14.24
2018-04-16T01:55:39.181Z,13.99
2018-04-16T02:02:26.540Z,13.72
2018-04-16T02:05:34.599Z,13.52
2018-04-16T02:08:42.610Z,13.72
2018-04-16T02:15:27.927Z,13.72
2018-04-16T02:18:36.068Z,13.79
2018-04-16T02:21:44.129Z,13.55
2018-04-16T02:24:52.182Z,13.95
2018-04-16T02:28:00.344Z,13.79
2018-04-16T02:34:52.575Z,13.84
2018-04-16T02:38:00.659Z,13.92
2018-04-16T02:41:08.706Z,13.65
2018-04-16T02:44:16.773Z,13.64
2018-04-16T02:47:24.999Z,13.95
2018-04-16T02:50:33.977Z,13.62
2018-04-16T02:53:42.188Z,13.81
2018-04-16T02:56:50.396Z,14.00
2018-04-16T02:59:58.572Z,13.75
2018-04-16T03:06:44.897Z,13.77
2018-04-16T03:09:53.027Z,13.92
2018-04-16T03:13:01.216Z,13.79
2018-04-16T03:16:09.404Z,14.06
2018-04-16T03:19:17.467Z,13.86
2018-04-16T03:22:25.598Z,13.73
2018-04-16T03:25:33.864Z,13.62
2018-04-16T03:28:41.946Z,13.71
2018-04-16T03:31:50.075Z,13.59
2018-04-16T03:34:58.242Z,13.34
2018-04-16T03:38:06.488Z,13.59
2018-04-16T03:41:14.479Z,13.61
2018-04-16T03:44:22.641Z,13.54
2018-04-16T03:47:30.822Z,13.47
2018-04-16T03:50:39.073Z,13.56
2018-04-16T03:53:42.358Z,13.44
2018-04-16T03:56:44.916Z,13.53
2018-04-16T03:59:47.456Z,13.53
2018-04-16T04:02:49.998Z,13.54
2018-04-16T04:05:52.596Z,13.84
2018-04-16T04:08:55.164Z,13.81
2018-04-16T04:11:57.720Z,13.79
2018-04-16T04:15:00.261Z,13.77
2018-04-16T04:18:02.901Z,13.74
2018-04-16T04:21:05.462Z,13.73
2018-04-16T04:24:19.819Z,13.45
2018-04-16T04:27:34.148Z,13.36
2018-04-16T04:30:39.213Z,13.38
2018-04-16T04:33:41.756Z,13.24
2018-04-16T04:36:44.329Z,13.33
2018-04-16T04:39:46.934Z,13.20
2018-04-16T04:42:49.514Z,13.32
2018-04-16T04:45:53.144Z,13.27
2018-04-16T04:48:56.920Z,13.32
2018-04-16T04:52:00.348Z,12.79
2018-04-16T04:55:02.954Z,13.04
2018-04-16T04:58:05.606Z,13.05
2018-04-16T05:01:09.005Z,13.14
2018-04-16T05:04:13.625Z,13.22
2018-04-16T05:07:17.039Z,13.32
2018-04-16T05:13:53.546Z,13.17
2018-04-16T05:16:58.788Z,13.10
2018-04-16T05:20:01.399Z,13.53
2018-04-16T05:23:04.107Z,13.12
2018-04-16T05:26:08.879Z,13.09
2018-04-16T05:29:12.277Z,13.29
2018-04-16T05:32:15.210Z,13.50
2018-04-16T05:38:29.438Z,13.43
2018-04-16T05:41:32.028Z,13.40
2018-04-16T05:44:34.559Z,13.31
2018-04-16T05:47:38.283Z,13.35
2018-04-16T05:50:51.120Z,13.52
2018-04-16T05:53:53.699Z,13.21
2018-04-16T05:56:57.135Z,13.33
2018-04-16T06:00:00.913Z,13.20
2018-04-16T06:03:03.591Z,13.11
2018-04-16T06:06:06.150Z,13.18
2018-04-16T06:09:08.681Z,12.81
2018-04-16T06:12:11.292Z,12.98
2018-04-16T06:15:13.822Z,12.45
2018-04-16T06:18:16.373Z,12.51
2018-04-16T06:21:18.953Z,12.62
2018-04-16T06:24:21.488Z,12.31
2018-04-16T06:27:24.078Z,12.68
2018-04-16T06:30:27.376Z,12.75
2018-04-16T06:33:29.990Z,12.80
2018-04-16T06:36:32.586Z,12.72
2018-04-16T06:39:35.223Z,12.61
2018-04-16T06:42:37.823Z,12.38
2018-04-16T06:45:40.476Z,12.28
2018-04-16T06:48:42.995Z,12.53
2018-04-16T06:51:45.572Z,12.59
2018-04-16T06:54:48.394Z,12.58
2018-04-16T06:57:50.910Z,12.38
2018-04-16T07:00:53.429Z,12.36
2018-04-16T07:03:56.926Z,12.31
2018-04-16T07:06:59.655Z,12.11
2018-04-16T07:10:02.627Z,12.49
2018-04-16T07:13:11.292Z,12.35
2018-04-16T07:16:16.713Z,12.35
2018-04-16T07:29:57.736Z,12.56
2018-04-16T07:33:00.295Z,12.76
2018-04-16T07:36:02.837Z,12.51
2018-04-16T07:39:06.338Z,12.44
2018-04-16T07:42:08.856Z,12.11
2018-04-16T07:45:11.371Z,12.28
2018-04-16T07:48:13.892Z,12.24
2018-04-16T07:51:16.430Z,12.46
2018-04-16T07:54:18.957Z,12.56
2018-04-16T07:57:22.077Z,12.71
2018-04-16T08:00:24.646Z,12.62
2018-04-16T08:03:27.205Z,12.17
2018-04-16T08:06:29.686Z,12.29
2018-04-16T08:09:32.207Z,12.43
2018-04-16T08:12:34.779Z,12.48
2018-04-16T08:15:37.657Z,12.52
2018-04-16T08:18:40.161Z,12.63
2018-04-16T08:21:42.701Z,12.56
2018-04-16T08:24:45.216Z,12.54
2018-04-16T08:27:47.711Z,12.39
2018-04-16T08:30:50.213Z,12.39
2018-04-16T08:33:52.750Z,12.40
2018-04-16T08:36:55.301Z,12.70
2018-04-16T08:39:58.687Z,12.65
2018-04-16T08:43:01.257Z,12.81
2018-04-16T08:46:03.790Z,12.57
2018-04-16T08:49:06.363Z,12.51
2018-04-16T08:52:08.904Z,12.74
2018-04-16T08:55:11.633Z,12.79
2018-04-16T08:58:14.284Z,13.06
2018-04-16T09:01:16.817Z,13.10
2018-04-16T09:04:19.390Z,12.93
2018-04-16T09:07:21.920Z,12.88
2018-04-16T09:10:24.634Z,13.01
2018-04-16T09:13:27.173Z,13.15
2018-04-16T09:16:29.719Z,13.37
2018-04-16T09:19:32.345Z,13.34
2018-04-16T09:22:35.798Z,13.34
2018-04-16T09:25:39.060Z,13.52
2018-04-16T09:28:41.619Z,13.59
2018-04-16T09:31:44.152Z,13.59
2018-04-16T09:34:47.401Z,13.67
2018-04-16T09:37:50.032Z,13.70
2018-04-16T09:40:52.589Z,13.81
2018-04-16T09:43:55.138Z,13.59
2018-04-16T09:46:57.639Z,13.57
2018-04-16T09:50:00.196Z,13.70
2018-04-16T09:53:02.735Z,13.66
2018-04-16T09:56:05.350Z,13.51
2018-04-16T09:59:07.907Z,13.84
2018-04-16T10:05:55.019Z,14.03
2018-04-16T10:08:57.554Z,14.34
2018-04-16T10:12:00.141Z,14.04
2018-04-16T10:15:02.673Z,14.11
2018-04-16T10:18:05.206Z,14.32
2018-04-16T10:21:07.806Z,14.42
2018-04-16T10:24:10.391Z,14.60
2018-04-16T10:27:12.977Z,14.71
2018-04-16T10:30:15.572Z,14.55
2018-04-16T10:33:18.087Z,14.72
2018-04-16T10:36:20.612Z,14.56
2018-04-16T10:39:23.224Z,14.79
2018-04-16T10:42:25.964Z,15.12
2018-04-16T10:45:28.533Z,15.10
2018-04-16T10:48:31.055Z,15.22
2018-04-16T10:51:33.651Z,15.33
2018-04-16T10:54:36.209Z,15.14
2018-04-16T10:57:38.774Z,14.86
2018-04-16T11:00:41.342Z,15.54
2018-04-16T11:03:43.901Z,15.81
2018-04-16T11:06:46.423Z,15.68
2018-04-16T11:09:48.943Z,15.88
2018-04-16T11:12:51.447Z,15.90
2018-04-16T11:15:53.975Z,16.30
2018-04-16T11:18:56.512Z,16.33
2018-04-16T11:21:59.032Z,16.88
2018-04-16T11:25:01.596Z,16.84
2018-04-16T11:28:04.126Z,17.12
2018-04-16T11:31:07.599Z,17.49
2018-04-16T11:34:10.158Z,17.76
2018-04-16T11:37:12.727Z,18.01
2018-04-16T11:40:15.437Z,18.44
2018-04-16T11:43:17.947Z,18.15
2018-04-16T11:46:20.461Z,17.86
2018-04-16T11:49:22.977Z,18.13
2018-04-16T11:52:25.531Z,18.24
2018-04-16T11:55:28.081Z,18.27
2018-04-16T11:58:30.594Z,18.48
2018-04-16T12:01:33.393Z,18.54
2018-04-16T12:04:36.057Z,18.66
2018-04-16T12:07:38.531Z,18.59
